Poplar Bluff, MO

4:20 AM CDT on April 18, 2015 (GMT -0500)
Cape Girardeau Regional | | Change Station
CLOSE
Current Station
Airport
Location: Cape Girardeau,
Elevation: 341 ft
Nearby Weather Stations

Elev 341 ft 37.23 °N, 89.57 °W | Updated 27 minutes ago

Clear
Clear
56 °F
Feels Like 56 °F
N
0
Wind Variable Wind from North

Today
High -- | Low -- °F
--% Chance of Precip.
Yesterday
High -- | Low -- °F
Precip. -- in
6:24 AM 7:38 PM
Waning Crescent, 0% visible
Pressure 30.00 in
Visibility 0.5 miles
Clouds
Dew Point 56 °F
Humidity 100%
Rainfall 0.00 in
Snow Depth Not available.
UV Not available.
Pollen 10.40 out of 12
Air Quality Not available.
Flu Activity Local Activity
METAR KCGI 180853Z AUTO 00000KT 1/2SM FG VV003 13/13 A3000 RMK AO2 SLP158 T01330133 55000 TSNO RVRNO

More Conditions Fewer Conditions

Pressure 30.00 in
Visibility 0.5 miles
Clouds
Dew Point 56 °F
Humidity 100%
Rainfall 0.00 in
Snow Depth Not available.
UV Not available.
Pollen 10.40 out of 12
Air Quality Not available.
Flu Activity Local Activity
METAR KCGI 180853Z AUTO 00000KT 1/2SM FG VV003 13/13 A3000 RMK AO2 SLP158 T01330133 55000 TSNO RVRNO

More Conditions Fewer Conditions

10-Day Weather Forecast

Almanac

Astronomy

Apr. 18, 2015 Rise Set
Actual Time
Civil Twilight
Nautical Twilight
Astronomical Twilight
Moon
Length of Visible Light
Length of Day
Tomorrow will be .
, % of the Moon is Illuminated

Today's Extremes

State Highs State Lows

Community

WunderPhotos

Upload Photos

1,814,350 photos uploaded!

WunderBlogs® & News

Nearby

Air Quality

  Air Quality AQ Index Pollutant
Not available.

Snow Depth

Station Depth Elevation

Earthquake Activity

City Distance Mag. Time & Date
Minimum magnitude displayed is 2.5.

Coastal Water Temperatures

Place Temperature

Stations

Nearby Weather Stations

Station Location Temp. Windchill Dew Point Humidity Wind Precip. Elev Updated Type